FMSDFMMI

Guest
Details From FMSD - TOLAGNARO
To FMMI - IVATO
Flight Number -
Tags generated
Created
Modified
Stats Distance 395 nm / 732 km
Max Altitude 35,000 ft / 10,668 m
Waypoints 4
Social Downloads 3
Likes 0
Share VATSIM

Download

Looking for another format? Having issues loading an existing format? Contact us
Advertisement - Login to hide

Notes

Basic altitude profile: - Ascent Rate: 2500ft/min - Ascent Speed: 250kts - Cruise Altitude: 35000ft - Cruise Speed: 420kts - Descent Rate: 1500ft/min - Descent Speed: 250kts Options: - Use NATs: yes - Use PACOTS: yes - Use low airways: yes - Use high airways: yes

Route

FMSD XURIK LAKRA FMMI

ID Type Via Altitude Latitude Longitude Leg Dist Tot Dist Heading (true) Name
O FMSD APT - 0 ft / 0 m -25.03928˚ 46.95638˚ - 0 nm - TOLAGNARO
XURIK FIX - 7,900 ft / 2,408 m -24.89139˚ 47.33278˚ 22 nm 22 nm 67° / 66° -
LAKRA FIX - 35,000 ft / 10,668 m -22.58972˚ 48.00000˚ 143 nm 165 nm 15° / 15° -
O FMMI APT - 0 ft / 0 m -18.79695˚ 47.47881˚ 229 nm 395 nm 353° / 353° IVATO

Altitude Profile

Advertisement - Login to hide

Weather


0- 5 10 15 20 25 30 35+ Temperature / ° C

Clouds and Precipitation
Forecast for 2017-12-11 00:00 UTC. Updated 2 hours ago

Ground ~20,000 ft ~40,000 ft Winds

FMSD

Details ICAO FMSD (FTU)
Name TOLAGNARO
Region Comoros, Mayotte, Réunion and Madagascar
Timezone Indian/Antananarivo (UTC+3.0)
Stats Elevation 29 ft / 9 m (AMSL)
Location -25.039276° 46.956381°
Runways 1
Magnetic Variation 23.799° W

METAR

FMSD 110000Z 04006KT 9999 FEW016 22/20 Q1010

Decode

TAF

Not found

Departure Runways

ID Width Length Bearing (true) Bearing (mag) Surface Threshold Offset Overrun Length
08 98 ft / 30 m 4,919 ft / 1,499 m 52.01° 75.81° Asphalt 0 ft / 0 m 0 ft / 0 m
26 98 ft / 30 m 4,919 ft / 1,499 m 232.01° 255.81° Asphalt 0 ft / 0 m 0 ft / 0 m

FMMI

Details ICAO FMMI (TNR)
Name IVATO
Region Comoros, Mayotte, Réunion and Madagascar
Timezone Indian/Antananarivo (UTC+3.0)
Stats Elevation 4,198 ft / 1,280 m (AMSL)
Location -18.796950° 47.478806°
Runways 1
Magnetic Variation 15.160° W

METAR

FMMI 110030Z 31005KT 9999 FEW017 18/17 Q1017 NOSIG

Decode

TAF

Not found

Destination Runways

ID Width Length Bearing (true) Bearing (mag) Surface Threshold Offset Overrun Length
11 148 ft / 45 m 10,167 ft / 3,099 m 98.92° 114.08° Asphalt 0 ft / 0 m 90 ft / 27 m
29 148 ft / 45 m 10,167 ft / 3,099 m 278.91° 294.07° Asphalt 0 ft / 0 m 90 ft / 27 m

Approach Navaids

Runway Type Ident Frequency Range Bearing (true) Bearing (mag) Slope Elevation
11 Localiser IO 109.50 MHz 18 nm / 33 km 98.89° 114.05° - 4,125 ft / 1,257 m (AMSL)
11 Glidescope IO 109.50 MHz 10 nm / 19 km 98.91° 114.07° 3.00° 4,198 ft / 1,280 m (AMSL)

Popular Alternatives